Time;durP1;ratioP1;P1;durP2;ratioP2;P2;SDS_P1;SDS_P2;PMS_P1;PMS_P2;Temp;Humidity;BMP_temperature;BMP_pressure;BME280_temperature;BME280_humidity;BME280_pressure;Samples;Min_cycle;Max_cycle;Signal;HPM_P1;HPM_P2
2023/04/09 00:01:09;;;;;;;30.02;21.20;;;;;;;5.19;74.51;101263.06;5071574;28;20056;-64
2023/04/09 00:03:39;;;;;;;25.05;17.63;;;;;;;5.19;74.23;101258.34;5067737;28;20060;-64
2023/04/09 00:06:08;;;;;;;26.95;18.50;;;;;;;5.11;74.91;101258.81;5060342;28;20049;-64
2023/04/09 00:08:35;;;;;;;27.00;18.83;;;;;;;5.14;74.30;101260.22;5051169;28;20067;-64
2023/04/09 00:11:03;;;;;;;27.98;18.45;;;;;;;5.13;73.99;101270.44;5061182;28;20056;-64
2023/04/09 00:13:30;;;;;;;24.50;17.80;;;;;;;5.04;74.05;101261.78;5054011;28;20071;-64
2023/04/09 00:15:57;;;;;;;26.25;18.30;;;;;;;4.99;74.44;101258.09;5061866;28;20064;-64
2023/04/09 00:18:26;;;;;;;28.58;19.77;;;;;;;4.99;73.88;101263.63;5052352;28;20041;-65
2023/04/09 00:20:53;;;;;;;26.05;18.73;;;;;;;4.92;74.76;101263.00;5065319;28;20387;-65
2023/04/09 00:23:21;;;;;;;28.52;19.98;;;;;;;4.88;74.21;101263.50;5065118;28;20059;-65
2023/04/09 00:25:48;;;;;;;28.48;18.77;;;;;;;4.89;74.17;101264.31;5059899;28;20049;-64
2023/04/09 00:28:16;;;;;;;27.75;19.50;;;;;;;4.83;74.91;101266.22;5056102;28;20049;-65
2023/04/09 00:30:43;;;;;;;26.30;19.00;;;;;;;4.79;75.04;101259.53;5063909;28;20053;-65
2023/04/09 00:33:10;;;;;;;28.10;19.13;;;;;;;4.78;74.81;101262.53;5060998;28;20052;-60
2023/04/09 00:35:39;;;;;;;27.67;19.23;;;;;;;4.71;76.05;101264.66;5058133;28;20051;-60
2023/04/09 00:38:06;;;;;;;25.38;18.33;;;;;;;4.67;76.05;101262.41;5070593;28;20064;-59
2023/04/09 00:40:33;;;;;;;29.65;20.75;;;;;;;4.66;75.18;101255.22;5061739;28;20060;-59
2023/04/09 00:43:08;;;;;;;36.95;24.20;;;;;;;4.62;75.98;101256.81;5056109;28;20048;-60
2023/04/09 00:45:36;;;;;;;36.45;22.15;;;;;;;4.62;75.84;101254.06;5051870;28;20502;-60
2023/04/09 00:48:05;;;;;;;29.30;20.63;;;;;;;4.62;75.57;101255.97;5061950;28;20075;-60
2023/04/09 00:50:32;;;;;;;28.52;19.90;;;;;;;4.62;75.57;101256.81;5063294;28;20041;-59
2023/04/09 00:53:01;;;;;;;27.85;19.65;;;;;;;4.64;75.91;101251.88;5075326;28;20063;-60
2023/04/09 00:55:30;;;;;;;28.35;20.17;;;;;;;4.60;75.82;101245.22;5075682;28;20405;-60
2023/04/09 00:57:57;;;;;;;32.55;22.10;;;;;;;4.59;76.54;101249.03;5070225;28;20064;-60
2023/04/09 01:00:26;;;;;;;31.67;21.17;;;;;;;4.54;76.46;101249.00;5055566;28;20057;-59
2023/04/09 01:02:56;;;;;;;27.77;19.45;;;;;;;4.51;75.88;101248.66;5055676;28;20048;-59
2023/04/09 01:05:25;;;;;;;35.30;22.15;;;;;;;4.46;75.83;101250.25;5055119;28;20053;-59
2023/04/09 01:08:03;;;;;;;33.97;22.95;;;;;;;4.46;76.31;101249.44;5055900;28;20057;-59
2023/04/09 01:10:37;;;;;;;34.20;23.40;;;;;;;4.45;76.38;101247.75;5054257;28;20056;-59
2023/04/09 01:13:12;;;;;;;33.80;22.05;;;;;;;4.48;76.44;101248.06;5055804;28;20048;-59
2023/04/09 01:15:47;;;;;;;35.83;22.77;;;;;;;4.47;76.17;101253.84;5055190;28;20049;-59
2023/04/09 01:18:22;;;;;;;29.52;20.50;;;;;;;4.48;76.43;101252.75;5058507;28;20076;-60
2023/04/09 01:20:56;;;;;;;30.85;21.10;;;;;;;4.50;76.16;101247.81;5055063;28;20049;-59
2023/04/09 01:23:35;;;;;;;30.38;20.55;;;;;;;4.50;76.29;101249.75;5054812;28;20057;-60
2023/04/09 01:26:07;;;;;;;26.10;18.60;;;;;;;4.46;76.22;101253.00;5074389;28;20379;-59
2023/04/09 01:28:42;;;;;;;29.45;18.52;;;;;;;4.32;76.23;101254.47;5069615;28;20433;-59
2023/04/09 01:31:13;;;;;;;26.98;18.42;;;;;;;4.23;75.74;101253.22;5075073;28;20424;-59
2023/04/09 01:33:41;;;;;;;31.70;19.98;;;;;;;4.17;76.02;101251.47;5075189;28;20106;-59
2023/04/09 01:36:09;;;;;;;27.73;18.75;;;;;;;4.18;76.17;101248.47;5069378;28;20494;-60
2023/04/09 01:38:39;;;;;;;25.75;17.15;;;;;;;4.22;76.10;101244.13;5057664;28;20521;-60
2023/04/09 01:41:09;;;;;;;29.40;18.77;;;;;;;4.18;76.79;101254.00;5054621;28;20056;-60
2023/04/09 01:43:38;;;;;;;31.08;20.05;;;;;;;4.21;76.57;101252.66;5054733;28;20132;-59
2023/04/09 01:46:06;;;;;;;29.27;18.52;;;;;;;4.17;75.15;101254.25;5054607;28;20049;-60
2023/04/09 01:48:34;;;;;;;28.15;19.23;;;;;;;4.16;75.75;101253.41;5054648;28;20053;-60
2023/04/09 01:51:01;;;;;;;29.67;19.88;;;;;;;4.18;75.04;101254.00;5055021;28;20057;-60
2023/04/09 01:53:29;;;;;;;30.08;19.23;;;;;;;4.17;75.18;101249.56;5054761;28;20064;-60
2023/04/09 01:55:59;;;;;;;23.73;16.00;;;;;;;4.18;74.88;101256.75;5054325;28;20053;-60
2023/04/09 01:58:26;;;;;;;27.88;18.73;;;;;;;4.19;75.25;101252.06;5055387;28;20514;-60
2023/04/09 02:00:59;;;;;;;23.52;17.38;;;;;;;4.13;74.87;101247.56;5054408;28;20064;-60
2023/04/09 02:03:34;;;;;;;23.52;16.00;;;;;;;4.15;74.63;101257.25;5069547;28;20052;-59
2023/04/09 02:06:06;;;;;;;38.17;23.80;;;;;;;4.08;75.24;101253.84;5063868;28;20489;-60
2023/04/09 02:08:35;;;;;;;26.20;17.75;;;;;;;4.06;75.12;101247.72;5072212;28;20057;-60
2023/04/09 02:11:05;;;;;;;34.42;22.00;;;;;;;4.08;74.33;101256.59;5074307;28;20052;-60
2023/04/09 02:13:34;;;;;;;29.42;18.00;;;;;;;3.99;75.40;101253.41;5058626;28;20068;-60
2023/04/09 02:16:05;;;;;;;28.98;19.42;;;;;;;4.05;75.35;101257.94;5071926;28;20048;-60
2023/04/09 02:18:32;;;;;;;30.75;20.20;;;;;;;4.07;75.47;101255.75;5056307;28;20055;-60
2023/04/09 02:21:00;;;;;;;51.50;23.17;;;;;;;4.12;76.17;101256.94;5053894;28;20053;-59
2023/04/09 02:23:27;;;;;;;32.55;19.45;;;;;;;4.12;75.49;101249.47;5059516;28;20533;-59
2023/04/09 02:25:55;;;;;;;79.78;25.00;;;;;;;4.11;75.43;101249.72;5073665;28;20419;-59
2023/04/09 02:28:22;;;;;;;37.88;22.95;;;;;;;4.10;76.39;101250.84;5064593;28;20060;-59
2023/04/09 02:30:49;;;;;;;55.85;20.88;;;;;;;4.15;76.44;101245.38;5052700;28;20068;-59
2023/04/09 02:33:18;;;;;;;44.88;23.70;;;;;;;4.13;76.52;101242.88;5053034;28;20439;-60
2023/04/09 02:35:47;;;;;;;56.00;21.38;;;;;;;4.19;76.00;101250.13;5053456;28;20056;-60
2023/04/09 02:38:14;;;;;;;57.33;24.25;;;;;;;4.24;75.93;101243.84;5055004;28;20055;-65
2023/04/09 02:40:42;;;;;;;236.30;38.72;;;;;;;4.30;77.00;101240.09;5059098;28;20394;-65
2023/04/09 02:43:10;;;;;;;172.18;33.88;;;;;;;4.35;76.60;101233.84;5069347;28;20048;-64
2023/04/09 02:45:37;;;;;;;133.20;27.30;;;;;;;4.40;77.69;101237.47;5056628;28;20041;-64
2023/04/09 02:48:05;;;;;;;477.77;55.90;;;;;;;4.40;77.54;101226.44;5053437;28;20514;-65
2023/04/09 02:50:33;;;;;;;222.15;35.42;;;;;;;4.47;77.58;101223.50;5057187;28;20053;-65
2023/04/09 02:53:01;;;;;;;217.57;35.83;;;;;;;4.50;78.62;101219.41;5070464;28;20053;-65
2023/04/09 02:55:28;;;;;;;189.73;32.00;;;;;;;4.56;79.24;101221.16;5069358;28;20048;-64
2023/04/09 02:57:55;;;;;;;241.65;35.50;;;;;;;4.60;80.22;101225.03;5055791;28;20423;-65
2023/04/09 03:00:23;;;;;;;242.35;38.55;;;;;;;4.71;79.89;101224.09;5053136;28;20053;-60
2023/04/09 03:02:50;;;;;;;181.82;35.60;;;;;;;4.72;79.52;101223.00;5053280;28;20483;-61
2023/04/09 03:05:17;;;;;;;186.77;35.78;;;;;;;4.77;80.71;101222.25;5071252;28;20053;-60
2023/04/09 03:07:46;;;;;;;200.82;31.88;;;;;;;4.82;80.71;101231.41;5062752;28;20423;-60
2023/04/09 03:10:14;;;;;;;153.63;32.40;;;;;;;4.85;80.87;101221.78;5052993;28;20067;-60
2023/04/09 03:12:43;;;;;;;223.38;40.55;;;;;;;4.88;80.38;101218.50;5055204;28;20052;-59
2023/04/09 03:15:10;;;;;;;163.32;29.45;;;;;;;4.92;80.62;101216.91;5053002;28;20056;-60
2023/04/09 03:17:38;;;;;;;108.35;26.88;;;;;;;4.90;80.65;101215.50;5052814;28;20535;-60
2023/04/09 03:20:07;;;;;;;202.32;31.00;;;;;;;4.96;80.97;101218.06;5052943;28;20080;-60
2023/04/09 03:22:36;;;;;;;210.55;32.80;;;;;;;4.99;80.95;101212.00;5053067;28;20395;-60
2023/04/09 03:25:05;;;;;;;173.00;28.98;;;;;;;4.98;81.49;101206.75;5052789;28;20522;-61
2023/04/09 03:27:33;;;;;;;203.63;34.58;;;;;;;4.97;81.17;101205.06;5054377;28;20048;-60
2023/04/09 03:30:00;;;;;;;165.85;32.20;;;;;;;4.99;80.88;101203.72;5052971;28;20048;-60
2023/04/09 03:32:27;;;;;;;159.00;33.13;;;;;;;4.99;81.16;101200.97;5063349;28;20048;-60
2023/04/09 03:34:54;;;;;;;96.75;24.98;;;;;;;5.04;81.12;101205.69;5062054;28;20406;-61
2023/04/09 03:37:22;;;;;;;145.77;28.38;;;;;;;5.00;81.64;101212.84;5072799;28;20045;-60
2023/04/09 03:39:49;;;;;;;163.43;35.22;;;;;;;5.01;81.31;101206.22;5055145;28;20053;-60
2023/04/09 03:42:17;;;;;;;122.65;28.52;;;;;;;5.00;81.34;101210.09;5062703;28;20071;-60
2023/04/09 03:44:45;;;;;;;272.83;43.65;;;;;;;4.98;82.15;101206.75;5063799;28;20059;-60
2023/04/09 03:47:12;;;;;;;135.70;27.48;;;;;;;4.98;81.48;101195.72;5054922;28;20041;-59
2023/04/09 03:49:39;;;;;;;211.50;39.85;;;;;;;4.99;81.20;101202.88;5052659;28;20048;-60
2023/04/09 03:52:07;;;;;;;173.02;33.17;;;;;;;4.94;82.09;101198.16;5051410;28;20053;-60
2023/04/09 03:54:34;;;;;;;114.80;27.35;;;;;;;4.95;81.91;101193.47;5059587;28;20055;-60
2023/04/09 03:57:02;;;;;;;121.00;26.63;;;;;;;4.88;81.42;101191.72;5056916;28;20049;-60
2023/04/09 03:59:31;;;;;;;155.85;33.28;;;;;;;4.78;81.88;101199.88;5057664;28;20053;-60
2023/04/09 04:01:58;;;;;;;150.73;29.17;;;;;;;4.78;81.44;101202.66;5072394;28;20052;-62
2023/04/09 04:04:25;;;;;;;269.60;34.28;;;;;;;4.75;82.44;101202.34;5071284;28;20052;-60
2023/04/09 04:06:52;;;;;;;165.73;31.20;;;;;;;4.80;82.12;101205.97;5049165;28;20075;-60
2023/04/09 04:09:20;;;;;;;60.97;23.23;;;;;;;4.83;82.17;101204.63;5050203;28;20049;-60
2023/04/09 04:11:47;;;;;;;77.13;23.60;;;;;;;4.85;81.80;101200.53;5060695;28;20391;-60
2023/04/09 04:14:15;;;;;;;86.90;26.60;;;;;;;4.93;82.17;101201.16;5059862;28;20049;-60
2023/04/09 04:16:44;;;;;;;116.68;27.02;;;;;;;4.93;81.54;101199.22;5052947;28;20056;-60
2023/04/09 04:19:11;;;;;;;173.88;33.35;;;;;;;4.96;81.74;101198.72;5052168;28;20049;-60
2023/04/09 04:21:38;;;;;;;119.35;30.33;;;;;;;4.97;82.29;101205.06;5055458;28;20052;-60
2023/04/09 04:24:06;;;;;;;176.88;32.28;;;;;;;5.00;81.76;101205.41;5066998;28;20053;-60
2023/04/09 04:26:33;;;;;;;159.93;30.75;;;;;;;5.00;81.27;101204.56;5074423;28;20052;-60
2023/04/09 04:29:01;;;;;;;186.70;27.55;;;;;;;4.98;81.33;101201.25;5059203;28;20053;-59
2023/04/09 04:31:28;;;;;;;89.97;24.80;;;;;;;5.00;80.80;101204.56;5056614;28;20060;-60
2023/04/09 04:33:57;;;;;;;165.32;28.30;;;;;;;5.02;81.00;101203.22;5058149;28;20052;-61
2023/04/09 04:36:24;;;;;;;100.70;25.48;;;;;;;4.93;80.04;101204.75;5059362;28;20045;-60
2023/04/09 04:38:52;;;;;;;72.28;20.73;;;;;;;4.99;80.65;101213.94;5073545;28;20056;-60
2023/04/09 04:41:19;;;;;;;110.65;25.02;;;;;;;4.94;80.43;101211.13;5063588;28;20060;-60
2023/04/09 04:43:49;;;;;;;60.63;19.38;;;;;;;4.90;80.48;101215.50;5060044;28;20053;-60
2023/04/09 04:46:16;;;;;;;129.10;25.00;;;;;;;4.88;79.29;101216.56;5073582;28;20343;-61
2023/04/09 04:48:43;;;;;;;114.10;24.27;;;;;;;4.82;79.41;101217.59;5068504;28;20052;-61
2023/04/09 04:51:15;;;;;;;113.40;25.05;;;;;;;4.79;79.37;101209.84;5064239;28;20053;-61
2023/04/09 04:53:42;;;;;;;111.50;24.95;;;;;;;4.78;79.42;101207.34;5054201;28;20060;-61
2023/04/09 04:56:13;;;;;;;68.90;19.92;;;;;;;4.79;80.32;101211.78;5056708;28;20061;-60
2023/04/09 04:58:40;;;;;;;90.50;22.17;;;;;;;4.83;79.45;101210.16;5059473;28;20057;-60
2023/04/09 05:01:07;;;;;;;113.05;21.75;;;;;;;4.84;79.89;101211.84;5065776;28;20383;-60
2023/04/09 05:03:35;;;;;;;157.80;27.05;;;;;;;4.81;79.65;101215.13;5063467;28;20076;-60
2023/04/09 05:06:02;;;;;;;101.68;22.23;;;;;;;4.75;78.69;101213.38;5061081;28;20048;-60
2023/04/09 05:08:30;;;;;;;147.27;23.98;;;;;;;4.74;79.35;101218.06;5060902;28;20049;-61
2023/04/09 05:10:58;;;;;;;50.55;17.75;;;;;;;4.73;78.21;101215.56;5067987;28;20048;-60
2023/04/09 05:13:25;;;;;;;112.40;23.75;;;;;;;4.75;79.55;101208.69;5067912;28;20060;-59
2023/04/09 05:15:52;;;;;;;39.95;17.00;;;;;;;4.86;78.20;101215.16;5055060;28;20471;-61
2023/04/09 05:18:20;;;;;;;58.78;17.55;;;;;;;4.85;78.89;101213.50;5054919;28;20060;-60
2023/04/09 05:20:49;;;;;;;74.95;18.90;;;;;;;4.92;78.59;101208.63;5054420;28;20049;-60
2023/04/09 05:23:17;;;;;;;165.80;26.15;;;;;;;4.97;78.30;101221.63;5055229;28;20433;-60
2023/04/09 05:25:48;;;;;;;105.25;21.48;;;;;;;4.94;78.07;101213.88;5059556;28;20049;-60
2023/04/09 05:28:16;;;;;;;80.38;19.58;;;;;;;4.95;78.13;101218.31;5059575;28;20414;-60
2023/04/09 05:30:46;;;;;;;59.25;18.55;;;;;;;5.06;78.60;101214.56;5065026;28;20053;-60
2023/04/09 05:33:16;;;;;;;;;;;;;;;5.26;78.83;101220.31;5070283;28;20060;-61
2023/04/09 05:35:43;;;;;;;37.38;16.73;;;;;;;5.39;79.43;101220.97;5069370;28;20548;-60
2023/04/09 05:38:12;;;;;;;51.45;17.65;;;;;;;5.50;79.24;101219.97;5065965;28;20040;-60
2023/04/09 05:40:41;;;;;;;47.10;17.08;;;;;;;5.55;78.57;101222.81;5054342;28;20061;-60
2023/04/09 05:43:09;;;;;;;47.47;17.00;;;;;;;5.65;78.01;101231.19;5057121;28;20053;-60
2023/04/09 05:45:39;;;;;;;30.75;15.30;;;;;;;5.75;77.57;101226.84;5058410;28;20057;-60
2023/04/09 05:48:07;;;;;;;18.60;14.20;;;;;;;5.68;76.11;101227.88;5068746;28;20044;-61
2023/04/09 05:50:37;;;;;;;25.30;15.23;;;;;;;5.72;76.07;101230.97;5061725;28;20483;-61
2023/04/09 05:53:04;;;;;;;39.28;15.70;;;;;;;5.84;75.06;101226.09;5070109;28;20056;-61
2023/04/09 05:55:32;;;;;;;111.18;19.70;;;;;;;5.91;74.71;101231.38;5065799;28;20407;-61
2023/04/09 05:58:14;;;;;;;47.05;15.77;;;;;;;5.87;75.38;101230.25;5060521;28;20160;-61
2023/04/09 06:00:41;;;;;;;123.22;19.65;;;;;;;5.96;74.57;101228.69;5056109;28;20060;-61
2023/04/09 06:03:09;;;;;;;45.05;16.73;;;;;;;5.99;74.53;101230.13;5054340;28;20056;-61
2023/04/09 06:05:36;;;;;;;35.22;14.88;;;;;;;6.03;74.11;101243.13;5070790;28;20049;-60
2023/04/09 06:08:04;;;;;;;64.65;16.75;;;;;;;6.12;73.56;101242.66;5070585;28;20045;-61
2023/04/09 06:10:32;;;;;;;53.75;15.90;;;;;;;6.15;73.41;101236.56;5062717;28;20052;-61
2023/04/09 06:12:59;;;;;;;28.05;14.57;;;;;;;6.25;73.09;101237.47;5059781;28;20056;-61
2023/04/09 06:15:28;;;;;;;46.38;15.85;;;;;;;6.30;72.54;101239.47;5056285;28;20057;-61
2023/04/09 06:17:55;;;;;;;35.08;15.43;;;;;;;6.40;72.41;101233.97;5060721;28;20052;-61
2023/04/09 06:20:26;;;;;;;46.30;14.73;;;;;;;6.49;71.99;101240.66;5058098;28;20049;-60
2023/04/09 06:22:54;;;;;;;31.42;14.60;;;;;;;6.66;71.28;101239.66;5057735;28;20044;-60
2023/04/09 06:25:21;;;;;;;27.60;14.80;;;;;;;6.74;70.89;101244.69;5072701;28;20467;-61
2023/04/09 06:27:48;;;;;;;31.92;14.18;;;;;;;6.91;70.00;101239.75;5053117;28;20112;-60
2023/04/09 06:30:16;;;;;;;69.63;15.77;;;;;;;7.10;70.21;101237.34;5052807;28;20049;-60
2023/04/09 06:32:48;;;;;;;43.05;13.35;;;;;;;7.27;69.88;101237.09;5070878;28;20052;-60
2023/04/09 06:35:15;;;;;;;37.30;13.93;;;;;;;7.41;69.12;101236.56;5073755;28;20060;-61
2023/04/09 06:37:42;;;;;;;31.63;13.55;;;;;;;7.57;68.52;101232.72;5058173;28;20499;-60
2023/04/09 06:40:10;;;;;;;60.47;15.23;;;;;;;7.68;68.44;101231.59;5065047;28;20048;-61
2023/04/09 06:42:38;;;;;;;33.38;13.90;;;;;;;7.81;67.74;101233.03;5073816;28;20050;-60
2023/04/09 06:45:07;;;;;;;50.67;14.65;;;;;;;7.98;67.27;101234.66;5061121;28;20144;-61
2023/04/09 06:47:37;;;;;;;44.55;14.27;;;;;;;8.19;65.81;101229.91;5072538;28;20052;-60
2023/04/09 06:50:06;;;;;;;29.15;13.57;;;;;;;8.52;64.92;101229.34;5059464;28;20053;-61
2023/04/09 06:52:33;;;;;;;;;;;;;;;8.65;63.88;101227.06;5071513;28;20095;-61
2023/04/09 06:55:00;;;;;;;29.23;14.15;;;;;;;8.97;64.24;101234.19;5057677;28;19925;-61
2023/04/09 06:57:28;;;;;;;31.15;15.52;;;;;;;9.16;63.61;101234.38;5053889;28;20060;-61
2023/04/09 06:59:55;;;;;;;20.98;13.18;;;;;;;9.44;62.32;101230.84;5057104;28;20044;-61
2023/04/09 07:02:23;;;;;;;35.78;14.25;;;;;;;9.65;61.84;101239.06;5072328;28;20425;-61
2023/04/09 07:04:50;;;;;;;44.05;15.15;;;;;;;9.81;60.51;101235.03;5064068;28;20423;-61
2023/04/09 07:07:19;;;;;;;18.90;12.52;;;;;;;9.83;61.25;101232.78;5052569;28;20048;-61
2023/04/09 07:09:46;;;;;;;16.73;13.50;;;;;;;9.91;60.62;101242.44;5068858;28;20052;-61
2023/04/09 07:12:15;;;;;;;14.85;13.23;;;;;;;9.91;60.10;101231.31;5055008;28;20144;-61
2023/04/09 07:14:42;;;;;;;16.25;14.55;;;;;;;9.67;60.85;101234.03;5071768;28;20049;-60
2023/04/09 07:17:09;;;;;;;15.98;14.38;;;;;;;9.56;60.62;101227.72;5064667;28;20060;-61
2023/04/09 07:19:37;;;;;;;17.85;14.73;;;;;;;9.49;62.03;101229.97;5064711;28;20040;-60
2023/04/09 07:22:04;;;;;;;16.38;14.38;;;;;;;9.72;61.76;101232.06;5065575;28;20053;-60
2023/04/09 07:24:33;;;;;;;15.68;14.02;;;;;;;10.33;61.11;101232.63;5061576;28;20059;-60
2023/04/09 07:27:03;;;;;;;15.18;13.57;;;;;;;11.35;59.04;101228.59;5064020;28;20071;-60
2023/04/09 07:29:31;;;;;;;16.08;13.68;;;;;;;12.58;56.15;101232.13;5051918;28;20160;-60
2023/04/09 07:31:59;;;;;;;16.75;14.95;;;;;;;13.72;53.03;101233.34;5057445;28;20064;-60
2023/04/09 07:34:27;;;;;;;18.42;16.38;;;;;;;14.77;52.32;101234.81;5057382;28;20056;-60
2023/04/09 07:36:54;;;;;;;15.57;13.93;;;;;;;16.06;49.24;101228.84;5066755;28;20053;-60
2023/04/09 07:39:22;;;;;;;15.23;12.48;;;;;;;16.94;47.16;101233.03;5058129;28;20052;-60
2023/04/09 07:41:51;;;;;;;13.98;12.25;;;;;;;17.76;43.91;101227.00;5063487;28;20064;-61
2023/04/09 07:44:19;;;;;;;12.85;11.65;;;;;;;18.69;43.59;101226.69;5064381;28;20057;-61
2023/04/09 07:46:46;;;;;;;12.55;11.25;;;;;;;19.63;40.55;101222.88;5051780;28;20049;-60
2023/04/09 07:49:13;;;;;;;13.40;12.13;;;;;;;20.21;38.87;101219.72;5054503;28;20053;-61
2023/04/09 07:51:40;;;;;;;14.10;12.60;;;;;;;20.99;37.72;101209.63;5060037;28;20068;-61
2023/04/09 07:54:08;;;;;;;12.80;11.50;;;;;;;21.79;36.32;101206.56;5051273;28;20045;-61
2023/04/09 07:56:35;;;;;;;13.43;12.13;;;;;;;22.55;34.89;101215.34;5054871;28;20060;-61
2023/04/09 07:59:04;;;;;;;12.65;11.45;;;;;;;23.41;33.96;101213.09;5053337;28;20060;-61
2023/04/09 08:01:31;;;;;;;13.63;12.35;;;;;;;23.99;32.70;101212.66;5058460;28;20499;-61
2023/04/09 08:03:59;;;;;;;13.93;12.63;;;;;;;24.57;31.33;101219.81;5061903;28;20067;-61
2023/04/09 08:06:26;;;;;;;13.02;11.73;;;;;;;24.96;30.63;101205.06;5057913;28;20053;-61
2023/04/09 08:08:53;;;;;;;12.68;11.48;;;;;;;25.58;29.81;101209.16;5055218;28;20387;-61
2023/04/09 08:11:24;;;;;;;13.70;12.40;;;;;;;26.12;29.31;101204.47;5055068;28;20061;-61
2023/04/09 08:13:51;;;;;;;13.10;11.77;;;;;;;26.69;28.67;101198.06;5060766;28;20056;-61
2023/04/09 08:16:22;;;;;;;13.95;12.63;;;;;;;27.46;27.69;101195.53;5062697;28;20434;-61
2023/04/09 08:18:51;;;;;;;13.25;12.05;;;;;;;28.24;27.11;101195.59;5067596;28;20052;-62
2023/04/09 08:21:18;;;;;;;13.57;12.23;;;;;;;28.93;25.73;101194.66;5051747;28;20117;-60
2023/04/09 08:23:48;;;;;;;12.60;11.38;;;;;;;29.31;25.37;101188.97;5057476;28;20057;-60
2023/04/09 08:26:15;;;;;;;13.50;12.20;;;;;;;29.74;25.40;101190.56;5056289;28;20053;-61
2023/04/09 08:28:42;;;;;;;12.73;11.52;;;;;;;30.53;20.87;101193.16;5051569;28;20053;-60
2023/04/09 08:31:10;;;;;;;12.75;11.45;;;;;;;30.52;21.78;101194.38;5061922;28;20407;-61
2023/04/09 08:33:38;;;;;;;12.32;11.13;;;;;;;30.53;21.30;101181.63;5057748;28;20122;-61
2023/04/09 08:36:10;;;;;;;12.07;10.98;;;;;;;30.54;20.23;101185.31;5049569;28;20064;-61
2023/04/09 08:38:37;;;;;;;11.98;10.68;;;;;;;29.98;20.59;101182.84;5052275;28;20045;-60
2023/04/09 08:41:05;;;;;;;11.15;10.05;;;;;;;29.95;20.78;101178.78;5057210;28;20045;-61
2023/04/09 08:43:33;;;;;;;11.68;10.48;;;;;;;29.45;20.74;101185.13;5056333;28;20055;-61
2023/04/09 08:46:02;;;;;;;11.67;10.57;;;;;;;29.71;21.37;101191.41;5066801;28;20055;-60
2023/04/09 08:48:29;;;;;;;;;;;;;;;29.08;21.45;101192.50;5054323;28;20071;-60
2023/04/09 08:50:58;;;;;;;10.95;9.85;;;;;;;29.74;20.99;101188.50;5055172;28;19921;-60
2023/04/09 08:53:26;;;;;;;10.55;9.55;;;;;;;29.54;19.77;101194.03;5049744;28;20056;-60
2023/04/09 08:55:53;;;;;;;11.55;9.30;;;;;;;29.70;19.86;101187.72;5063340;28;20060;-60
2023/04/09 08:58:21;;;;;;;9.13;8.23;;;;;;;30.08;19.33;101186.81;5057234;28;20048;-60
2023/04/09 09:00:48;;;;;;;8.02;7.20;;;;;;;31.40;17.75;101183.00;5051645;28;20403;-60
2023/04/09 09:03:16;;;;;;;8.40;7.65;;;;;;;31.85;18.35;101191.13;5051192;28;20056;-60
2023/04/09 09:05:44;;;;;;;8.13;7.33;;;;;;;31.61;17.99;101181.75;5051716;28;20494;-60
2023/04/09 09:08:22;;;;;;;7.28;6.57;;;;;;;31.87;16.73;101183.63;5051347;28;20060;-60
2023/04/09 09:10:49;;;;;;;8.15;7.35;;;;;;;30.95;17.34;101187.94;5053544;28;20063;-60
2023/04/09 09:13:18;;;;;;;8.63;7.78;;;;;;;30.88;17.44;101188.03;5055271;28;20053;-60
2023/04/09 09:15:48;;;;;;;9.40;8.40;;;;;;;30.49;17.39;101189.50;5059519;28;20048;-61
2023/04/09 09:18:16;;;;;;;7.32;6.63;;;;;;;30.30;17.66;101176.66;5068385;28;20068;-60
2023/04/09 09:20:44;;;;;;;7.38;6.68;;;;;;;30.92;17.23;101182.25;5072201;28;20605;-61
2023/04/09 09:23:12;;;;;;;8.25;7.45;;;;;;;31.34;16.79;101186.38;5069902;28;20055;-60
2023/04/09 09:25:40;;;;;;;8.30;7.50;;;;;;;30.77;17.73;101189.47;5065676;28;20155;-61
2023/04/09 09:28:08;;;;;;;6.45;5.85;;;;;;;30.91;16.86;101183.47;5070786;28;20079;-60
2023/04/09 09:30:37;;;;;;;7.10;6.40;;;;;;;31.25;16.42;101185.34;5058363;28;20045;-60
2023/04/09 09:33:07;;;;;;;6.10;5.60;;;;;;;31.88;15.46;101173.75;5061182;28;20052;-61
2023/04/09 09:35:48;;;;;;;8.35;7.55;;;;;;;31.86;15.67;101173.38;5062003;28;20067;-61
2023/04/09 09:38:17;;;;;;;8.32;7.53;;;;;;;32.16;15.87;101175.19;5055598;28;20391;-61
2023/04/09 09:40:44;;;;;;;7.20;6.50;;;;;;;33.49;15.47;101173.84;5055039;28;20048;-61
2023/04/09 09:43:12;;;;;;;7.32;6.68;;;;;;;33.46;15.47;101183.44;5055284;28;20408;-61
2023/04/09 09:45:40;;;;;;;7.07;6.40;;;;;;;32.13;16.08;101175.28;5058263;28;20064;-58
2023/04/09 09:48:10;;;;;;;8.55;7.20;;;;;;;31.94;16.50;101171.97;5062548;28;20057;-58
2023/04/09 09:50:40;;;;;;;7.13;6.53;;;;;;;31.33;17.09;101163.75;5069480;28;20078;-61
2023/04/09 09:53:10;;;;;;;6.82;6.22;;;;;;;31.09;16.07;101165.88;5069579;28;20056;-61
2023/04/09 09:55:41;;;;;;;6.97;6.22;;;;;;;31.07;16.44;101174.97;5059726;28;20057;-61
2023/04/09 09:58:16;;;;;;;6.90;6.10;;;;;;;31.90;15.40;101159.72;5063136;28;20394;-61
2023/04/09 10:00:46;;;;;;;7.18;6.55;;;;;;;33.94;14.37;101153.53;5068684;28;20056;-61
2023/04/09 10:03:15;;;;;;;6.82;6.22;;;;;;;33.34;14.49;101156.94;5060621;28;20052;-61
2023/04/09 10:05:44;;;;;;;6.70;6.10;;;;;;;32.20;15.11;101154.13;5054575;28;20057;-61
2023/04/09 10:08:12;;;;;;;;;;;;;;;32.07;15.55;101143.31;5058455;28;20056;-61
2023/04/09 10:10:42;;;;;;;7.70;6.53;;;;;;;33.40;15.15;101145.63;5053884;28;19929;-61
2023/04/09 10:13:12;;;;;;;6.85;6.13;;;;;;;30.22;16.48;101148.41;5057143;28;20359;-61
2023/04/09 10:15:41;;;;;;;7.25;6.60;;;;;;;29.67;17.71;101154.13;5065232;28;20067;-60
2023/04/09 10:18:09;;;;;;;7.40;6.70;;;;;;;30.62;17.15;101142.91;5063483;28;20065;-60
2023/04/09 10:20:41;;;;;;;7.95;7.15;;;;;;;29.32;18.37;101143.88;5058326;28;20463;-61
2023/04/09 10:23:15;;;;;;;8.18;7.38;;;;;;;29.67;17.22;101153.28;5072086;28;20119;-60
2023/04/09 10:25:44;;;;;;;8.38;7.57;;;;;;;30.42;17.99;101142.81;5060494;28;20056;-61
2023/04/09 10:28:16;;;;;;;8.70;7.85;;;;;;;31.21;16.92;101129.91;5061047;28;20056;-61
2023/04/09 10:30:43;;;;;;;8.15;7.45;;;;;;;32.54;15.46;101136.41;5059976;28;20044;-61
2023/04/09 10:33:13;;;;;;;7.72;6.95;;;;;;;33.25;14.62;101139.47;5060514;28;20171;-61
2023/04/09 10:35:41;;;;;;;7.18;6.57;;;;;;;30.99;17.08;101126.63;5059436;28;20048;-61
2023/04/09 10:38:09;;;;;;;8.05;7.25;;;;;;;29.42;18.50;101131.47;5064104;28;20059;-61
2023/04/09 10:40:41;;;;;;;7.68;6.90;;;;;;;28.52;18.44;101134.44;5050786;28;20060;-61
2023/04/09 10:43:11;;;;;;;7.88;7.07;;;;;;;29.57;18.42;101125.53;5056062;28;20049;-61
2023/04/09 10:45:42;;;;;;;7.47;6.38;;;;;;;27.69;20.23;101145.56;5057066;28;20044;-61
2023/04/09 10:48:13;;;;;;;7.75;7.00;;;;;;;28.17;20.05;101129.75;5056585;28;20517;-61
2023/04/09 10:50:43;;;;;;;8.30;7.50;;;;;;;31.32;17.20;101116.91;5067373;28;20501;-61
2023/04/09 10:53:23;;;;;;;8.07;7.35;;;;;;;30.05;18.26;101115.84;5070246;28;20057;-60
2023/04/09 10:55:53;;;;;;;7.65;6.95;;;;;;;27.78;19.72;101125.88;5062743;28;20055;-60
2023/04/09 10:58:21;;;;;;;7.97;7.20;;;;;;;26.47;20.97;101123.72;5055853;28;20411;-61
2023/04/09 11:00:50;;;;;;;8.32;7.47;;;;;;;24.65;22.76;101130.34;5058234;28;20048;-60
2023/04/09 11:03:22;;;;;;;8.88;7.97;;;;;;;23.70;23.92;101131.81;5062151;28;20044;-60
2023/04/09 11:05:53;;;;;;;7.85;7.05;;;;;;;24.04;24.13;101123.25;5064184;28;20057;-60
2023/04/09 11:08:21;;;;;;;7.88;7.18;;;;;;;29.57;19.79;101112.00;5055332;28;20068;-60
2023/04/09 11:10:49;;;;;;;7.15;6.13;;;;;;;29.89;18.50;101113.63;5060383;28;20507;-61
2023/04/09 11:13:18;;;;;;;6.95;6.30;;;;;;;29.30;18.44;101112.75;5058523;28;20410;-60
2023/04/09 11:15:47;;;;;;;7.25;6.55;;;;;;;31.94;15.57;101110.63;5059362;28;20052;-60
2023/04/09 11:18:15;;;;;;;7.38;6.68;;;;;;;32.14;15.32;101099.88;5052911;28;20049;-59
2023/04/09 11:20:43;;;;;;;7.23;6.53;;;;;;;34.19;14.67;101099.06;5048566;28;20065;-60
2023/04/09 11:23:16;;;;;;;7.13;6.43;;;;;;;33.68;14.08;101105.63;5054696;28;20052;-60